Villa Las Mercedes, Puerto Rico
Current Conditions -  °F | °C
As of 12:53 AM on Friday 31 Oct 2014 (Local Time) from TJNR Reporting Station
Light Rain Light Rain  
Wind Chill: 79°   Ceiling: 3600
Heat Index: 83°   Visibility: 10mi
Dew Point: 76°   Wind: 0mph
Humidity: 90%   Direction: NA
Pressure: 29.87"   Gusts: NA
Location:  18.1853°N, 65.8667°W
Report Text: TJNR 310453Z AUTO 00000KT 10SM -RA FEW021 SCT028 BKN036 26/24 A2987 RMK AO2 RAB0359E23B49 SLP115 P0013 T02610244 $
Loading
Personal Weather Stations






























Interactive Weather Map
Tropical Storm Tracking
New forecast layout! Learn more

10-Day Weather Forecast

Advertisements
Track Severe Weather on mobile